Luzerne, New York
Current Conditions -  °F | °C
As of 6:18 AM on Thursday 23 Oct 2014 (Local Time) from KGFL Reporting Station
Moderate Rain Moderate Rain  
Wind Chill: 41°   Ceiling: 2300
Heat Index: 47°   Visibility: 5mi
Dew Point: 42°   Wind: 14mph
Humidity: 83%   Direction: 350°N
Pressure: 29.89"   Gusts: NA
Location:  43.3271°N, 73.8026°W
Report Text: KGFL 231018Z AUTO 35012KT 5SM RA BKN023 OVC029 08/06 A2989 RMK AO2 P0005 T00830056
Loading
Personal Weather Stations






























Interactive Weather Map
Tropical Storm Tracking
New forecast layout! Learn more

10-Day Weather Forecast

Advertisements
Track Severe Weather on mobile